Time,TemperatureF,DewpointF,PressureIn,WindDirection,WindDirectionDegrees,WindSpeedMPH,WindSpeedGustMPH,Humidity,HourlyPrecipIn,Conditions,Clouds,dailyrainin,SoftwareType,DateUTC
2013-02-09 00:09:00,39.8,33.0,30.18,ESE,118,4.0,4.0,77,0.00,,,0.00,weatherlink.com 1.10,2013-02-09 06:09:00,
2013-02-09 00:24:00,40.1,33.0,30.18,SE,135,0.0,5.0,77,0.00,,,0.00,weatherlink.com 1.10,2013-02-09 06:24:00,
2013-02-09 00:39:00,40.0,33.0,30.18,SE,134,2.0,6.0,77,0.00,,,0.00,weatherlink.com 1.10,2013-02-09 06:39:00,
2013-02-09 00:54:00,39.9,33.0,30.18,SE,134,3.0,6.0,77,0.00,,,0.00,weatherlink.com 1.10,2013-02-09 06:54:00,
2013-02-09 01:09:00,39.8,33.0,30.17,SE,130,2.0,6.0,78,0.00,,,0.00,weatherlink.com 1.10,2013-02-09 07:09:00,
2013-02-09 01:25:00,39.5,33.0,30.17,SE,125,0.0,8.0,78,0.00,,,0.00,weatherlink.com 1.10,2013-02-09 07:25:00,
2013-02-09 01:40:00,39.4,33.0,30.17,SE,126,0.0,7.0,78,0.00,,,0.00,weatherlink.com 1.10,2013-02-09 07:40:00,
2013-02-09 01:55:00,38.4,33.0,30.17,SE,126,0.0,4.0,80,0.00,,,0.00,weatherlink.com 1.10,2013-02-09 07:55:00,
2013-02-09 02:10:00,38.4,33.0,30.17,SE,126,5.0,5.0,80,0.00,,,0.00,weatherlink.com 1.10,2013-02-09 08:10:00,
2013-02-09 02:25:00,38.5,33.0,30.17,SE,126,0.0,5.0,80,0.00,,,0.00,weatherlink.com 1.10,2013-02-09 08:25:00,
2013-02-09 02:40:00,38.3,33.0,30.18,SE,126,0.0,4.0,81,0.00,,,0.00,weatherlink.com 1.10,2013-02-09 08:40:00,
2013-02-09 02:55:00,38.6,33.0,30.18,SE,127,1.0,6.0,81,0.00,,,0.00,weatherlink.com 1.10,2013-02-09 08:55:00,
2013-02-09 03:10:00,38.3,33.0,30.17,SE,127,0.0,2.0,81,0.00,,,0.00,weatherlink.com 1.10,2013-02-09 09:10:00,
2013-02-09 03:25:00,37.9,33.0,30.17,SE,127,0.0,3.0,82,0.00,,,0.00,weatherlink.com 1.10,2013-02-09 09:25:00,
2013-02-09 03:40:00,38.0,33.0,30.16,SE,126,3.0,7.0,83,0.00,,,0.00,weatherlink.com 1.10,2013-02-09 09:40:00,
2013-02-09 03:55:00,38.3,33.0,30.15,SE,126,3.0,8.0,82,0.00,,,0.00,weatherlink.com 1.10,2013-02-09 09:55:00,
2013-02-09 04:10:00,38.3,33.0,30.15,SE,138,4.0,9.0,82,0.00,,,0.00,weatherlink.com 1.10,2013-02-09 10:10:00,
2013-02-09 04:25:00,38.4,33.0,30.15,SE,127,6.0,10.0,82,0.00,,,0.00,weatherlink.com 1.10,2013-02-09 10:25:00,
2013-02-09 04:40:00,38.7,34.0,30.14,SE,136,4.0,14.0,82,0.00,,,0.00,weatherlink.com 1.10,2013-02-09 10:40:00,
2013-02-09 04:55:00,38.6,34.0,30.13,SE,136,8.0,17.0,82,0.00,,,0.00,weatherlink.com 1.10,2013-02-09 10:55:00,
2013-02-09 05:10:00,38.7,34.0,30.13,SSE,155,3.0,14.0,82,0.00,,,0.00,weatherlink.com 1.10,2013-02-09 11:10:00,
2013-02-09 05:25:00,38.4,33.0,30.13,SE,124,5.0,14.0,82,0.00,,,0.00,weatherlink.com 1.10,2013-02-09 11:25:00,
2013-02-09 05:40:00,38.3,33.0,30.13,SE,137,5.0,14.0,82,0.00,,,0.00,weatherlink.com 1.10,2013-02-09 11:40:00,
2013-02-09 05:55:00,38.1,33.0,30.14,SSE,159,5.0,10.0,83,0.00,,,0.00,weatherlink.com 1.10,2013-02-09 11:55:00,
2013-02-09 06:10:00,38.2,34.0,30.14,SE,145,2.0,12.0,83,0.00,,,0.00,weatherlink.com 1.10,2013-02-09 12:10:00,
2013-02-09 06:25:00,38.0,33.0,30.15,South,170,4.0,10.0,83,0.00,,,0.00,weatherlink.com 1.10,2013-02-09 12:25:00,
2013-02-09 06:40:00,37.9,34.0,30.14,SE,144,6.0,11.0,84,0.00,,,0.00,weatherlink.com 1.10,2013-02-09 12:40:00,
2013-02-09 06:55:00,37.7,34.0,30.14,South,169,5.0,14.0,85,0.00,,,0.00,weatherlink.com 1.10,2013-02-09 12:55:00,
2013-02-09 07:10:00,37.5,34.0,30.15,SE,126,6.0,13.0,86,0.00,,,0.00,weatherlink.com 1.10,2013-02-09 13:10:00,
2013-02-09 07:25:00,37.2,33.0,30.15,SSE,168,5.0,13.0,86,0.00,,,0.00,weatherlink.com 1.10,2013-02-09 13:25:00,
2013-02-09 07:40:00,37.3,34.0,30.15,SE,135,9.0,15.0,86,0.00,,,0.00,weatherlink.com 1.10,2013-02-09 13:40:00,
2013-02-09 07:55:00,37.5,34.0,30.15,SE,142,0.0,17.0,86,0.00,,,0.00,weatherlink.com 1.10,2013-02-09 13:55:00,
2013-02-09 08:10:00,37.4,33.0,30.15,ESE,121,5.0,14.0,85,0.00,,,0.00,weatherlink.com 1.10,2013-02-09 14:10:00,
2013-02-09 08:25:00,37.7,34.0,30.15,SSE,149,7.0,13.0,85,0.00,,,0.00,weatherlink.com 1.10,2013-02-09 14:25:00,
2013-02-09 08:40:00,38.1,34.0,30.14,SSE,153,4.0,12.0,84,0.00,,,0.00,weatherlink.com 1.10,2013-02-09 14:40:00,
2013-02-09 08:55:00,38.5,34.0,30.14,South,174,3.0,13.0,83,0.00,,,0.00,weatherlink.com 1.10,2013-02-09 14:55:00,
2013-02-09 09:10:00,38.8,33.0,30.14,ESE,123,8.0,17.0,80,0.00,,,0.00,weatherlink.com 1.10,2013-02-09 15:10:00,
2013-02-09 09:25:00,38.8,33.0,30.14,South,180,4.0,18.0,79,0.00,,,0.00,weatherlink.com 1.10,2013-02-09 15:25:00,
2013-02-09 09:40:00,39.7,34.0,30.13,SE,140,6.0,11.0,79,0.00,,,0.00,weatherlink.com 1.10,2013-02-09 15:40:00,
2013-02-09 09:55:00,39.6,33.0,30.15,SE,135,3.0,16.0,78,0.00,,,0.00,weatherlink.com 1.10,2013-02-09 15:55:00,
2013-02-09 10:10:00,39.4,33.0,30.13,SE,143,8.0,12.0,78,0.00,,,0.00,weatherlink.com 1.10,2013-02-09 16:10:00,
2013-02-09 10:25:00,40.0,33.0,30.13,SE,134,4.0,14.0,77,0.00,,,0.00,weatherlink.com 1.10,2013-02-09 16:25:00,
2013-02-09 10:40:00,39.9,33.0,30.11,SE,139,7.0,18.0,76,0.00,,,0.00,weatherlink.com 1.10,2013-02-09 16:40:00,
2013-02-09 10:55:00,40.1,33.0,30.11,ESE,119,8.0,14.0,76,0.00,,,0.00,weatherlink.com 1.10,2013-02-09 16:55:00,
2013-02-09 11:10:00,40.5,33.0,30.10,SE,144,5.0,18.0,75,0.00,,,0.00,weatherlink.com 1.10,2013-02-09 17:10:00,
2013-02-09 11:25:00,40.5,33.0,30.10,South,178,7.0,16.0,75,0.00,,,0.00,weatherlink.com 1.10,2013-02-09 17:25:00,
2013-02-09 11:41:00,40.0,33.0,30.11,SSE,152,4.0,19.0,75,0.00,,,0.00,weatherlink.com 1.10,2013-02-09 17:41:00,
2013-02-09 11:56:00,39.7,33.0,30.10,SSE,161,7.0,12.0,77,0.00,,,0.00,weatherlink.com 1.10,2013-02-09 17:56:00,
2013-02-09 12:11:00,39.2,33.0,30.09,SSE,154,2.0,18.0,79,0.00,,,0.00,weatherlink.com 1.10,2013-02-09 18:11:00,
2013-02-09 12:26:00,39.3,33.0,30.08,SSE,167,2.0,11.0,79,0.00,,,0.00,weatherlink.com 1.10,2013-02-09 18:26:00,
2013-02-09 12:41:00,39.4,33.0,30.07,SE,144,4.0,11.0,79,0.00,,,0.00,weatherlink.com 1.10,2013-02-09 18:41:00,
2013-02-09 12:56:00,39.6,34.0,30.05,SE,132,4.0,15.0,79,0.00,,,0.00,weatherlink.com 1.10,2013-02-09 18:56:00,
2013-02-09 13:11:00,40.0,34.0,30.03,SE,124,6.0,17.0,79,0.00,,,0.00,weatherlink.com 1.10,2013-02-09 19:11:00,
2013-02-09 13:26:00,40.2,34.0,30.01,SSE,149,5.0,15.0,78,0.00,,,0.00,weatherlink.com 1.10,2013-02-09 19:26:00,
2013-02-09 13:41:00,40.7,34.0,30.01,SSE,155,3.0,12.0,78,0.00,,,0.00,weatherlink.com 1.10,2013-02-09 19:41:00,
2013-02-09 13:56:00,40.5,34.0,30.00,SSW,200,8.0,13.0,79,0.00,,,0.00,weatherlink.com 1.10,2013-02-09 19:56:00,
2013-02-09 14:11:00,40.7,34.0,30.00,SSE,154,7.0,16.0,78,0.00,,,0.00,weatherlink.com 1.10,2013-02-09 20:11:00,
2013-02-09 14:26:00,40.7,35.0,29.98,SE,130,1.0,13.0,79,0.00,,,0.00,weatherlink.com 1.10,2013-02-09 20:26:00,
2013-02-09 14:41:00,40.2,35.0,30.00,South,171,0.0,13.0,82,0.00,,,0.00,weatherlink.com 1.10,2013-02-09 20:41:00,
2013-02-09 14:56:00,40.0,35.0,29.98,ESE,121,2.0,9.0,83,0.01,,,0.01,weatherlink.com 1.10,2013-02-09 20:56:00,
2013-02-09 15:11:00,40.1,36.0,29.96,ESE,123,5.0,12.0,84,0.01,,,0.01,weatherlink.com 1.10,2013-02-09 21:11:00,
2013-02-09 15:26:00,40.4,36.0,29.97,SE,140,0.0,12.0,83,0.01,,,0.01,weatherlink.com 1.10,2013-02-09 21:26:00,
2013-02-09 15:41:00,40.3,36.0,29.97,SE,130,5.0,11.0,84,0.01,,,0.01,weatherlink.com 1.10,2013-02-09 21:41:00,
2013-02-09 15:56:00,39.7,36.0,29.95,ESE,121,9.0,12.0,86,0.03,,,0.04,weatherlink.com 1.10,2013-02-09 21:56:00,
2013-02-09 16:11:00,39.1,36.0,29.93,ESE,115,4.0,13.0,88,0.07,,,0.08,weatherlink.com 1.10,2013-02-09 22:11:00,
2013-02-09 16:26:00,38.8,36.0,29.91,ESE,117,12.0,16.0,89,0.11,,,0.12,weatherlink.com 1.10,2013-02-09 22:26:00,
2013-02-09 16:41:00,39.1,36.0,29.91,ESE,105,5.0,14.0,89,0.13,,,0.14,weatherlink.com 1.10,2013-02-09 22:41:00,
2013-02-09 16:56:00,39.2,36.0,29.88,ESE,123,5.0,12.0,89,0.10,,,0.14,weatherlink.com 1.10,2013-02-09 22:56:00,
2013-02-09 17:11:00,39.4,37.0,29.89,SE,126,7.0,14.0,89,0.06,,,0.14,weatherlink.com 1.10,2013-02-09 23:11:00,
2013-02-09 17:26:00,39.7,37.0,29.89,SSE,147,5.0,16.0,89,0.02,,,0.14,weatherlink.com 1.10,2013-02-09 23:26:00,
2013-02-09 17:41:00,40.1,37.0,29.87,SE,127,6.0,13.0,89,0.00,,,0.14,weatherlink.com 1.10,2013-02-09 23:41:00,
2013-02-09 17:56:00,40.4,37.0,29.85,ESE,115,11.0,19.0,87,0.00,,,0.14,weatherlink.com 1.10,2013-02-09 23:56:00,
2013-02-09 18:11:00,40.3,37.0,29.86,SE,138,8.0,16.0,87,0.00,,,0.14,weatherlink.com 1.10,2013-02-10 00:11:00,
2013-02-09 18:26:00,40.2,37.0,29.86,SE,126,3.0,16.0,88,0.00,,,0.14,weatherlink.com 1.10,2013-02-10 00:26:00,
2013-02-09 18:41:00,40.3,37.0,29.86,SE,138,8.0,12.0,88,0.00,,,0.14,weatherlink.com 1.10,2013-02-10 00:41:00,
2013-02-09 18:56:00,40.5,37.0,29.86,SE,129,3.0,15.0,88,0.00,,,0.14,weatherlink.com 1.10,2013-02-10 00:56:00,
2013-02-09 19:11:00,40.7,38.0,29.85,ESE,120,9.0,13.0,89,0.00,,,0.14,weatherlink.com 1.10,2013-02-10 01:11:00,
2013-02-09 19:26:00,40.7,38.0,29.85,SE,137,7.0,16.0,89,0.00,,,0.14,weatherlink.com 1.10,2013-02-10 01:26:00,
2013-02-09 19:41:00,41.0,38.0,29.84,SE,140,10.0,18.0,89,0.00,,,0.14,weatherlink.com 1.10,2013-02-10 01:41:00,
2013-02-09 19:56:00,41.0,38.0,29.85,SE,130,6.0,17.0,90,0.00,,,0.14,weatherlink.com 1.10,2013-02-10 01:56:00,
2013-02-09 20:11:00,40.9,38.0,29.85,SSE,148,5.0,14.0,90,0.00,,,0.14,weatherlink.com 1.10,2013-02-10 02:11:00,
2013-02-09 20:26:00,41.0,39.0,29.85,South,171,7.0,14.0,91,0.00,,,0.14,weatherlink.com 1.10,2013-02-10 02:26:00,
2013-02-09 20:41:00,41.0,39.0,29.85,SSE,158,4.0,13.0,91,0.00,,,0.14,weatherlink.com 1.10,2013-02-10 02:41:00,
2013-02-09 20:56:00,41.0,39.0,29.84,SSE,156,7.0,16.0,92,0.00,,,0.14,weatherlink.com 1.10,2013-02-10 02:56:00,
2013-02-09 21:11:00,41.1,39.0,29.83,South,188,11.0,16.0,92,0.00,,,0.14,weatherlink.com 1.10,2013-02-10 03:11:00,
2013-02-09 21:26:00,41.2,39.0,29.83,SE,133,9.0,20.0,91,0.00,,,0.14,weatherlink.com 1.10,2013-02-10 03:26:00,
2013-02-09 21:41:00,41.5,39.0,29.82,SSE,167,9.0,20.0,91,0.00,,,0.14,weatherlink.com 1.10,2013-02-10 03:41:00,
2013-02-09 21:57:00,41.6,39.0,29.80,SSE,153,9.0,17.0,91,0.00,,,0.14,weatherlink.com 1.10,2013-02-10 03:57:00,
2013-02-09 22:12:00,41.7,39.0,29.78,SSE,161,13.0,20.0,91,0.00,,,0.14,weatherlink.com 1.10,2013-02-10 04:12:00,
2013-02-09 22:27:00,41.9,40.0,29.78,SSE,155,12.0,23.0,91,0.00,,,0.14,weatherlink.com 1.10,2013-02-10 04:27:00,
2013-02-09 22:42:00,42.2,40.0,29.77,SE,146,9.0,20.0,91,0.00,,,0.14,weatherlink.com 1.10,2013-02-10 04:42:00,
2013-02-09 22:57:00,42.3,40.0,29.76,SSE,148,6.0,20.0,91,0.00,,,0.14,weatherlink.com 1.10,2013-02-10 04:57:00,
2013-02-09 23:12:00,42.5,40.0,29.75,SE,132,5.0,17.0,91,0.00,,,0.14,weatherlink.com 1.10,2013-02-10 05:12:00,
2013-02-09 23:27:00,42.7,41.0,29.76,SSE,165,7.0,15.0,92,0.00,,,0.14,weatherlink.com 1.10,2013-02-10 05:27:00,
2013-02-09 23:42:00,43.1,41.0,29.76,East,101,8.0,21.0,92,0.00,,,0.14,weatherlink.com 1.10,2013-02-10 05:42:00,
2013-02-09 23:57:00,43.4,41.0,29.75,SE,142,4.0,24.0,91,0.00,,,0.14,weatherlink.com 1.10,2013-02-10 05:57:00,